マレ の空港の天気 - METARとTAF

マレ国際空港 ( VRMM / MLE ) - モルディブ Hulhule Island, North Male Atoll
飛行場実況気象(Metar)
観測時間01/19 16:00 MVT (01/19 11:00 UTC)
風向・風速東北東 7m/s
視程5000m
天気現象煙霧
少しの雲 雲底高度 550m
全天の8割程度の雲 雲底高度 8530m
気温30℃
湿度59%
気圧1010hPa
METARVRMM 191100Z 06013KT 5000 HZ FEW018 BKN280 30/21 Q1010 NOSIG
過去の天気等 Google飛行場航空写真 Wunderground天気予報

過去48時間のMETAR

飛行場予報(TAF)
発表時間: 1/19 10:00 MVT (1/19 05:00 UTC)
予報対象時間: 19日11時 MVT ~ 20日17時 MVT
風向・風速北東 5m/s
視程5000m
少しの雲 雲底高度 550m
19日15時 MVT ~ 19日20時 MVT に一時的に
少しの積乱雲 雲底高度 580m
TAF VRMM 190500Z 1906/2012 05010KT 5000 FEW018
TEMPO 1910/1915 FEW019CB